createdAt,value
2024-02-29T00:00:55.680Z,14.90
2024-02-29T00:03:29.099Z,19.65
2024-02-29T00:05:57.317Z,30.58
2024-02-29T00:08:25.425Z,19.13
2024-02-29T00:11:00.292Z,18.23
2024-02-29T00:13:28.462Z,20.58
2024-02-29T00:15:57.012Z,21.20
2024-02-29T00:18:25.302Z,15.55
2024-02-29T00:20:53.339Z,15.20
2024-02-29T00:23:21.565Z,14.68
2024-02-29T00:25:49.777Z,21.73
2024-02-29T00:28:18.164Z,17.42
2024-02-29T00:30:50.558Z,20.73
2024-02-29T00:33:21.703Z,25.25
2024-02-29T00:36:04.913Z,22.00
2024-02-29T00:38:39.059Z,23.40
2024-02-29T00:41:12.965Z,19.80
2024-02-29T00:43:45.593Z,21.42
2024-02-29T00:46:13.594Z,19.40
2024-02-29T00:48:41.490Z,17.20
2024-02-29T00:51:09.521Z,24.00
2024-02-29T00:53:37.455Z,33.20
2024-02-29T00:56:06.102Z,19.73
2024-02-29T00:58:39.681Z,29.58
2024-02-29T01:01:08.463Z,22.58
2024-02-29T01:03:36.828Z,16.17
2024-02-29T01:06:05.991Z,23.30
2024-02-29T01:08:36.916Z,20.38
2024-02-29T01:11:08.212Z,18.02
2024-02-29T01:13:36.741Z,19.90
2024-02-29T01:16:10.908Z,16.20
2024-02-29T01:18:39.408Z,22.95
2024-02-29T01:21:13.164Z,22.52
2024-02-29T01:23:47.064Z,20.00
2024-02-29T01:26:15.223Z,23.33
2024-02-29T01:28:45.219Z,18.65
2024-02-29T01:31:13.483Z,18.38
2024-02-29T01:33:41.627Z,19.52
2024-02-29T01:36:09.580Z,23.42
2024-02-29T01:38:37.542Z,17.02
2024-02-29T01:41:25.117Z,31.52
2024-02-29T01:44:11.955Z,21.58
2024-02-29T01:46:58.557Z,21.08
2024-02-29T01:49:47.212Z,15.68
2024-02-29T01:52:16.837Z,14.43
2024-02-29T01:54:45.069Z,13.70
2024-02-29T01:57:13.370Z,18.90
2024-02-29T01:59:41.893Z,16.52
2024-02-29T02:02:10.021Z,13.38
2024-02-29T02:04:37.902Z,20.05
2024-02-29T02:07:06.057Z,25.85
2024-02-29T02:09:36.557Z,20.05
2024-02-29T02:12:05.098Z,15.80
2024-02-29T02:14:37.222Z,16.42
2024-02-29T02:17:13.663Z,17.55
2024-02-29T02:19:45.221Z,21.33
2024-02-29T02:22:13.698Z,19.95
2024-02-29T02:24:43.792Z,16.92
2024-02-29T02:27:12.241Z,19.88
2024-02-29T02:29:47.553Z,13.75
2024-02-29T02:34:44.970Z,19.88
2024-02-29T02:37:13.052Z,16.35
2024-02-29T02:39:41.064Z,14.38
2024-02-29T02:42:09.090Z,16.10
2024-02-29T02:44:37.216Z,13.57
2024-02-29T02:47:05.375Z,16.88
2024-02-29T02:49:33.451Z,11.85
2024-02-29T02:52:04.039Z,16.50
2024-02-29T02:54:32.153Z,12.20
2024-02-29T02:57:03.106Z,13.18
2024-02-29T02:59:31.267Z,13.27
2024-02-29T03:01:59.159Z,14.05
2024-02-29T03:04:27.608Z,19.50
2024-02-29T03:06:55.527Z,17.98
2024-02-29T03:09:23.644Z,15.30
2024-02-29T03:11:51.612Z,9.30
2024-02-29T03:14:24.207Z,12.30
2024-02-29T03:17:07.624Z,16.17
2024-02-29T03:19:35.785Z,14.43
2024-02-29T03:22:12.170Z,18.63
2024-02-29T03:24:47.839Z,13.48
2024-02-29T03:27:17.174Z,12.98
2024-02-29T03:29:46.433Z,13.60
2024-02-29T03:32:16.465Z,9.43
2024-02-29T03:35:00.333Z,14.27
2024-02-29T03:37:32.908Z,12.73
2024-02-29T03:40:15.355Z,12.30
2024-02-29T03:42:49.602Z,12.80
2024-02-29T03:45:27.111Z,12.40
2024-02-29T03:48:04.934Z,19.67
2024-02-29T03:50:34.407Z,15.75
2024-02-29T03:53:06.726Z,15.00
2024-02-29T03:55:35.409Z,12.63
2024-02-29T03:58:11.011Z,12.57
2024-02-29T04:00:44.946Z,13.43
2024-02-29T04:03:13.513Z,17.75
2024-02-29T04:05:41.700Z,15.40
2024-02-29T04:08:14.055Z,15.68
2024-02-29T04:10:54.783Z,17.45
2024-02-29T04:13:26.917Z,16.85
2024-02-29T04:16:03.143Z,10.95
2024-02-29T04:18:43.243Z,11.10
2024-02-29T04:21:13.828Z,15.27
2024-02-29T04:24:05.061Z,11.30
2024-02-29T04:26:45.281Z,16.55
2024-02-29T04:32:06.095Z,16.10
2024-02-29T04:34:37.058Z,12.80
2024-02-29T04:37:34.220Z,15.35
2024-02-29T04:40:07.508Z,17.05
2024-02-29T04:42:42.920Z,12.95
2024-02-29T04:45:12.211Z,10.63
2024-02-29T04:47:40.500Z,14.10
2024-02-29T04:50:11.857Z,13.70
2024-02-29T04:52:42.942Z,15.30
2024-02-29T04:55:15.631Z,10.55
2024-02-29T05:04:53.351Z,12.00
2024-02-29T05:07:44.815Z,12.13
2024-02-29T05:10:17.629Z,19.10
2024-02-29T05:12:54.934Z,16.92
2024-02-29T05:15:56.372Z,11.50
2024-02-29T05:18:33.745Z,26.25
2024-02-29T05:21:03.302Z,18.92
2024-02-29T05:23:31.424Z,11.93
2024-02-29T05:25:59.446Z,11.07
2024-02-29T05:28:27.549Z,18.77
2024-02-29T05:30:56.004Z,12.60
2024-02-29T05:33:27.180Z,11.25
2024-02-29T05:35:59.360Z,11.00
2024-02-29T05:38:27.478Z,10.27
2024-02-29T05:40:59.207Z,13.15
2024-02-29T05:43:33.851Z,14.27
2024-02-29T05:48:39.096Z,14.15
2024-02-29T05:51:09.956Z,14.43
2024-02-29T05:53:37.980Z,16.42
2024-02-29T05:56:08.688Z,13.30
2024-02-29T06:02:23.045Z,19.55
2024-02-29T06:05:01.254Z,14.02
2024-02-29T06:08:39.907Z,19.90
2024-02-29T06:11:26.493Z,15.20
2024-02-29T06:13:58.567Z,19.02
2024-02-29T06:21:14.342Z,14.13
2024-02-29T06:23:45.720Z,16.48
2024-02-29T06:26:30.757Z,16.73
2024-02-29T06:29:05.781Z,14.90
2024-02-29T06:31:50.976Z,16.98
2024-02-29T06:34:21.979Z,15.48
2024-02-29T06:36:54.013Z,11.30
2024-02-29T06:39:23.639Z,17.17
2024-02-29T06:44:38.149Z,12.27
2024-02-29T06:47:13.213Z,16.27
2024-02-29T06:49:41.676Z,19.80
2024-02-29T06:52:15.374Z,28.17
2024-02-29T06:55:06.093Z,24.65
2024-02-29T06:58:17.630Z,20.88
2024-02-29T07:00:59.262Z,24.83
2024-02-29T07:03:43.350Z,15.57
2024-02-29T07:06:14.707Z,16.52
2024-02-29T07:08:59.917Z,19.15
2024-02-29T07:11:42.464Z,18.10
2024-02-29T07:14:26.440Z,23.58
2024-02-29T07:16:57.322Z,17.92
2024-02-29T07:19:29.535Z,14.48
2024-02-29T07:22:11.043Z,17.13
2024-02-29T07:24:39.288Z,18.50
2024-02-29T07:27:07.921Z,12.88
2024-02-29T07:29:39.031Z,21.55
2024-02-29T07:32:08.908Z,11.60
2024-02-29T07:34:44.644Z,11.15
2024-02-29T07:37:14.532Z,14.63
2024-02-29T07:39:53.650Z,16.05
2024-02-29T07:42:45.371Z,16.60
2024-02-29T07:45:21.009Z,18.50
2024-02-29T07:47:52.844Z,16.38
2024-02-29T07:50:22.312Z,16.40
2024-02-29T07:52:56.937Z,12.52
2024-02-29T07:55:25.260Z,15.75
2024-02-29T07:57:57.520Z,21.27
2024-02-29T08:00:29.674Z,18.80
2024-02-29T08:02:58.122Z,17.70
2024-02-29T08:05:32.557Z,15.15
2024-02-29T08:08:00.892Z,24.42
2024-02-29T08:10:29.219Z,16.73
2024-02-29T08:13:12.393Z,13.65
2024-02-29T08:15:47.501Z,11.50
2024-02-29T08:18:15.946Z,17.70
2024-02-29T08:20:46.676Z,15.25
2024-02-29T08:23:16.120Z,20.90
2024-02-29T08:25:45.286Z,12.13
2024-02-29T08:28:13.639Z,10.05
2024-02-29T08:30:42.457Z,16.20
2024-02-29T08:33:22.823Z,16.85
2024-02-29T08:35:52.257Z,21.40
2024-02-29T08:38:20.646Z,18.52
2024-02-29T08:40:50.917Z,24.27
2024-02-29T08:43:20.724Z,15.43
2024-02-29T08:45:51.500Z,12.95
2024-02-29T08:48:20.435Z,15.38
2024-02-29T08:50:52.659Z,16.15
2024-02-29T08:53:26.037Z,14.20
2024-02-29T08:56:01.321Z,19.58
2024-02-29T08:58:35.029Z,17.73
2024-02-29T09:01:07.048Z,11.32
2024-02-29T09:03:35.570Z,13.50
2024-02-29T09:06:06.990Z,22.58
2024-02-29T09:08:41.868Z,17.15
2024-02-29T09:11:10.267Z,12.87
2024-02-29T09:13:40.667Z,11.20
2024-02-29T09:16:12.355Z,15.88
2024-02-29T09:18:41.473Z,11.73
2024-02-29T09:21:12.797Z,19.40
2024-02-29T09:23:44.049Z,14.65
2024-02-29T09:26:18.612Z,26.20
2024-02-29T09:28:47.179Z,20.92
2024-02-29T09:31:20.043Z,11.88
2024-02-29T09:33:48.533Z,15.00
2024-02-29T09:36:18.657Z,10.57
2024-02-29T09:39:18.906Z,9.80
2024-02-29T09:42:13.289Z,15.23
2024-02-29T09:45:15.771Z,17.30
2024-02-29T09:48:00.430Z,14.00
2024-02-29T09:50:31.656Z,15.90
2024-02-29T09:53:03.397Z,17.80
2024-02-29T09:55:32.297Z,11.07
2024-02-29T09:58:05.110Z,16.55
2024-02-29T10:00:37.238Z,17.20
2024-02-29T10:03:11.514Z,12.68
2024-02-29T10:05:39.988Z,11.73
2024-02-29T10:08:30.835Z,13.30
2024-02-29T10:11:04.235Z,15.27
2024-02-29T10:14:30.830Z,15.07
2024-02-29T10:17:24.486Z,21.83
2024-02-29T10:20:10.730Z,13.85
2024-02-29T10:23:36.189Z,12.50
2024-02-29T10:59:22.687Z,17.83
2024-02-29T11:02:01.743Z,18.40
2024-02-29T11:05:43.160Z,14.68
2024-02-29T11:08:54.877Z,16.70
2024-02-29T11:12:01.637Z,16.27
2024-02-29T11:15:18.814Z,15.07
2024-02-29T11:17:53.628Z,13.07
2024-02-29T11:20:25.971Z,15.50
2024-02-29T11:24:23.865Z,15.07
2024-02-29T11:27:39.875Z,11.60
2024-02-29T11:30:27.252Z,16.20
2024-02-29T11:35:58.770Z,13.13
2024-02-29T11:43:04.850Z,13.85
2024-02-29T11:45:39.152Z,25.98
2024-02-29T11:48:10.866Z,8.70
2024-02-29T11:50:51.631Z,18.85
2024-02-29T11:53:28.286Z,16.73
2024-02-29T11:56:55.613Z,19.00
2024-02-29T12:02:27.823Z,17.48
2024-02-29T12:05:01.149Z,16.90
2024-02-29T12:07:29.869Z,13.48
2024-02-29T12:10:06.423Z,21.58
2024-02-29T12:12:52.729Z,13.45
2024-02-29T12:15:43.488Z,22.08
2024-02-29T12:21:39.763Z,9.75
2024-02-29T12:24:11.945Z,18.67
2024-02-29T12:26:43.979Z,17.98
2024-02-29T12:29:12.796Z,10.20
2024-02-29T12:32:08.807Z,16.70
2024-02-29T12:35:05.862Z,14.27
2024-02-29T12:37:49.034Z,17.45
2024-02-29T12:40:20.943Z,13.85
2024-02-29T12:43:06.461Z,20.73
2024-02-29T12:45:39.720Z,17.48
2024-02-29T12:48:42.573Z,15.65
2024-02-29T12:51:14.676Z,29.80
2024-02-29T12:53:45.966Z,24.63
2024-02-29T12:56:18.155Z,14.63
2024-02-29T12:58:56.660Z,23.25
2024-02-29T13:01:26.146Z,17.00
2024-02-29T13:04:00.654Z,17.27
2024-02-29T13:06:31.550Z,19.98
2024-02-29T13:09:01.325Z,23.20
2024-02-29T13:11:30.018Z,11.90
2024-02-29T13:14:00.694Z,13.50
2024-02-29T13:16:29.123Z,15.40
2024-02-29T13:19:00.239Z,12.88
2024-02-29T13:21:31.281Z,19.45
2024-02-29T13:23:59.877Z,22.48
2024-02-29T13:26:28.106Z,29.83
2024-02-29T13:28:59.123Z,23.40
2024-02-29T13:31:27.596Z,21.95
2024-02-29T13:34:22.341Z,19.23
2024-02-29T13:36:50.964Z,20.77
2024-02-29T13:39:22.172Z,23.88
2024-02-29T13:41:50.458Z,24.83
2024-02-29T13:45:05.103Z,25.95
2024-02-29T13:47:50.445Z,26.58
2024-02-29T13:50:39.640Z,18.20
2024-02-29T13:59:35.053Z,22.95
2024-02-29T14:02:28.017Z,19.95
2024-02-29T14:05:04.424Z,22.02
2024-02-29T14:07:34.404Z,20.35
2024-02-29T14:10:06.045Z,24.45
2024-02-29T14:12:43.174Z,30.55
2024-02-29T14:15:27.346Z,25.73
2024-02-29T14:18:03.001Z,17.52
2024-02-29T14:21:08.399Z,16.08
2024-02-29T14:23:41.660Z,30.05
2024-02-29T14:26:18.852Z,13.93
2024-02-29T14:29:00.959Z,19.42
2024-02-29T14:31:50.673Z,16.00
2024-02-29T14:34:45.681Z,16.35
2024-02-29T14:38:17.800Z,20.13
2024-02-29T14:43:42.318Z,18.48
2024-02-29T14:47:04.527Z,20.55
2024-02-29T14:49:34.578Z,18.55
2024-02-29T14:52:04.381Z,24.02
2024-02-29T14:54:35.793Z,28.42
2024-02-29T14:57:35.308Z,27.50
2024-02-29T15:00:37.037Z,20.58
2024-02-29T15:03:18.209Z,26.70
2024-02-29T15:06:16.479Z,23.13
2024-02-29T15:17:42.690Z,28.85
2024-02-29T15:24:12.116Z,20.27
2024-02-29T15:27:18.621Z,34.33
2024-02-29T15:29:52.311Z,28.33
2024-02-29T15:32:22.890Z,25.67
2024-02-29T15:34:54.113Z,32.72
2024-02-29T15:40:25.372Z,19.95
2024-02-29T15:42:54.189Z,23.33
2024-02-29T15:45:22.383Z,32.42
2024-02-29T15:47:53.613Z,32.50
2024-02-29T15:50:26.391Z,28.73
2024-02-29T15:52:58.287Z,29.08
2024-02-29T15:55:27.227Z,27.23
2024-02-29T15:57:56.465Z,25.05
2024-02-29T16:00:27.998Z,21.23
2024-02-29T16:02:56.108Z,28.42
2024-02-29T16:05:24.312Z,29.30
2024-02-29T16:07:57.829Z,23.10
2024-02-29T16:10:42.955Z,29.65
2024-02-29T16:13:18.656Z,22.55
2024-02-29T16:21:19.715Z,25.33
2024-02-29T16:31:47.057Z,29.05
2024-02-29T17:31:05.862Z,29.60
2024-02-29T17:37:32.393Z,24.73
2024-02-29T17:40:36.919Z,32.65
2024-02-29T17:54:59.299Z,29.75
2024-02-29T17:57:38.422Z,27.90
2024-02-29T18:04:25.992Z,28.30
2024-02-29T18:06:31.482Z,28.40
2024-02-29T18:09:16.133Z,28.63
2024-02-29T18:12:35.417Z,32.55
2024-02-29T18:15:33.882Z,26.77
2024-02-29T18:18:09.032Z,25.48
2024-02-29T18:21:08.602Z,23.45
2024-02-29T18:28:49.554Z,29.73
2024-02-29T18:36:13.966Z,26.08
2024-02-29T18:38:57.380Z,25.92
2024-02-29T18:41:38.060Z,38.67
2024-02-29T18:44:45.769Z,21.77
2024-02-29T18:47:27.502Z,32.03
2024-02-29T18:50:06.581Z,29.00
2024-02-29T18:52:41.299Z,29.10
2024-02-29T18:55:18.049Z,34.63
2024-02-29T18:57:54.144Z,44.58
2024-02-29T19:00:36.796Z,33.67
2024-02-29T19:03:11.680Z,32.70
2024-02-29T19:05:53.902Z,26.02
2024-02-29T19:08:31.842Z,30.23
2024-02-29T19:11:08.585Z,26.40
2024-02-29T19:13:46.405Z,34.80
2024-02-29T19:16:21.847Z,37.42
2024-02-29T19:18:59.595Z,25.85
2024-02-29T19:21:33.553Z,29.42
2024-02-29T19:24:20.334Z,25.98
2024-02-29T19:27:00.964Z,31.10
2024-02-29T19:29:43.431Z,37.28
2024-02-29T19:32:32.652Z,27.95
2024-02-29T19:39:34.594Z,35.60
2024-02-29T19:42:44.622Z,35.67
2024-02-29T19:47:30.876Z,29.35
2024-02-29T19:56:46.739Z,42.20
2024-02-29T20:00:19.978Z,29.83
2024-02-29T20:03:07.006Z,37.30
2024-02-29T20:06:19.572Z,33.40
2024-02-29T20:14:08.736Z,29.63
2024-02-29T20:17:12.291Z,26.40
2024-02-29T20:33:23.223Z,28.77
2024-02-29T20:40:31.191Z,28.20
2024-02-29T20:43:21.278Z,32.55
2024-02-29T20:46:23.013Z,34.08
2024-02-29T20:49:38.867Z,32.60
2024-02-29T20:52:21.307Z,33.55
2024-02-29T20:59:26.601Z,29.10
2024-02-29T21:02:32.336Z,34.80
2024-02-29T21:05:11.371Z,29.17
2024-02-29T21:07:42.190Z,24.08
2024-02-29T21:12:47.294Z,23.45
2024-02-29T21:15:38.962Z,32.05
2024-02-29T21:18:08.364Z,29.25
2024-02-29T21:27:47.940Z,33.53
2024-02-29T21:30:21.982Z,45.10
2024-02-29T21:32:50.696Z,32.85
2024-02-29T21:35:35.598Z,33.20
2024-02-29T21:38:10.264Z,34.63
2024-02-29T21:41:02.454Z,31.30
2024-02-29T21:43:58.739Z,31.77
2024-02-29T21:46:40.935Z,32.60
2024-02-29T21:49:10.308Z,38.00
2024-02-29T21:51:39.162Z,29.88
2024-02-29T21:54:08.420Z,31.65
2024-02-29T21:56:47.052Z,31.10
2024-02-29T21:59:24.805Z,32.78
2024-02-29T22:01:58.130Z,26.83
2024-02-29T22:04:31.787Z,35.95
2024-02-29T22:07:03.198Z,31.05
2024-02-29T22:09:36.385Z,33.70
2024-02-29T22:12:12.243Z,33.13
2024-02-29T22:14:43.393Z,31.27
2024-02-29T22:17:16.362Z,29.23
2024-02-29T22:19:44.664Z,33.38
2024-02-29T22:22:13.654Z,31.38
2024-02-29T22:24:42.374Z,39.47
2024-02-29T22:27:11.823Z,26.77
2024-02-29T22:29:39.892Z,34.08
2024-02-29T22:32:10.645Z,38.50
2024-02-29T22:34:41.671Z,28.75
2024-02-29T22:37:09.982Z,28.67
2024-02-29T22:39:38.094Z,31.73
2024-02-29T22:42:16.408Z,38.88
2024-02-29T22:44:44.606Z,32.53
2024-02-29T22:47:12.733Z,26.10
2024-02-29T22:49:41.381Z,32.70
2024-02-29T22:52:09.488Z,34.97
2024-02-29T22:54:37.824Z,37.03
2024-02-29T22:57:06.347Z,26.85
2024-02-29T22:59:35.427Z,29.10
2024-02-29T23:02:07.055Z,31.48
2024-02-29T23:04:36.788Z,27.58
2024-02-29T23:07:05.301Z,27.40
2024-02-29T23:09:35.172Z,30.42
2024-02-29T23:12:03.663Z,35.28
2024-02-29T23:14:32.031Z,36.05
2024-02-29T23:17:00.273Z,32.13
2024-02-29T23:19:30.955Z,32.35
2024-02-29T23:22:01.822Z,28.42
2024-02-29T23:24:30.303Z,27.58
2024-02-29T23:26:59.006Z,28.15
2024-02-29T23:29:27.258Z,25.55
2024-02-29T23:31:58.098Z,28.00
2024-02-29T23:34:28.063Z,34.80
2024-02-29T23:36:56.216Z,30.00
2024-02-29T23:39:25.182Z,29.77
2024-02-29T23:41:53.564Z,25.92
2024-02-29T23:44:21.912Z,31.58
2024-02-29T23:46:50.207Z,27.63
2024-02-29T23:49:18.405Z,33.85
2024-02-29T23:51:46.762Z,33.22
2024-02-29T23:54:17.238Z,29.95
2024-02-29T23:56:50.059Z,23.75
2024-02-29T23:59:24.008Z,33.30
